Kezdőlap
METAR-TAF:

METAR-TAF

Repülőterek :

Penang, Malajzia

földrajzi szélesség: 05-18N, földrajzi hosszúság: 100-16E, magasság: 3 m

Jelenlegi meteorológiai megfigyelések

A jelentés 41 perccel ezelõtt készült, 03:30 UTC
Különbözõ irányokból fújó szél 3 kt
Hőmérséklet 29°C
Páratartalom 70%
Légköri nyomás 1008 hPa
Látótávolság: 9000 m
Kevés felhő 2000 lábon

METAR: WMKP 220330Z VRB03KT 9000 FEW020 29/23 Q1008 NOSIG

Idő: 12:11 (04:11 UTC)

Előrejelzés

A jelentés 5 órával és 11 perccel ezelõtt készült, 23:00 UTC
Az előrejelzés 22-én 00 óra UTC és 23-én 00 óra UTC között érvényes
Különbözõ irányokból fújó szél 5 kt
Látótávolság: 9000 m
Kevés felhő 2000 lábon
22-én 00 óra UTC és 22-én 03 óra UTC között ideiglenes
Látótávolság: 6000 m
Kevés felhő 1000 lábon
Kevés felhő 1700 lábon, Cumulonimbus.
zivatar, esõ,

TAF: WMKP 212300Z 2200/2300 VRB05KT 9000 FEW020 TEMPO 2200/2203 6000 TSRA FEW010 FEW017CB

Meteorológiai megfigyelések és előrejelzések több, mint 4000 repülőtéren (METAR és TAF jelentéseket).

A térképen piros és sárga pontok jelzik az elérhető meteorológiai állomásokat.

Mozgassa az egeret a pont fölött, hogy megjelenjen az állomás neve.

Azután kattintson az időjárási megfigyelések és előrejelzések megtekintéséhez.

A térkép megváltoztatása: kattintson a fekete keresztel jelölt zöld gombra ráközelítéshez, a vonallal jelölt zöld gombra távolításhoz, vagy a zöld nyilakra a szomszédos térképek eléréséhez.


METAR-TAF: